Billings, Montana
Current Conditions -  °F | °C
As of 2:53 PM on Friday 24 Oct 2014 (Local Time) from KBIL Reporting Station
Overcast Overcast  
Wind Chill: 57°   Ceiling: 9000
Heat Index: 57°   Visibility: 10mi
Dew Point: 39°   Wind: 6mph
Humidity: 51%   Direction: 60°ENE
Pressure: 30.05"   Gusts: NA
Location:  45.78°N, 108.5°W
Report Text: KBIL 242053Z 06005KT 10SM OVC090 14/04 A3005 RMK AO2 SLP169 T01390039 56004
Loading
Personal Weather Stations






























Interactive Weather Map New forecast layout! Learn more

10-Day Weather Forecast

Advertisements
Track Severe Weather on mobile